WHTO2: S Canadian Riv, Whitefield, OK

                                SHEF ID:       WHTO2     Canadian River near Whitefield,
STATION TYPE: Stream Gauge
Regulating: Stage = 17.50, Flow = 87858

PRECIP STAGE STAGE(2) RIV-FLOW BAT-LOAD
in ft ft cfs volt
Ccp-Rev Ccp-Rev Ccp-Rev Ccp-Rev Ccp-Rev
(America/Chicago)
04/28 00:00 0.00 5.25 5.16 6589 12.34
04/28 01:00 0.00 5.27 5.19 6647 12.33
04/28 02:00 0.00 5.12 5.03 6216 12.31
04/28 03:00 0.00 4.74 4.65 5204 12.31
04/28 04:00 0.00 4.32 4.22 4212 12.29
04/28 05:00 0.00 3.91 3.81 3360 12.27
04/28 06:00 0.00 3.52 3.41 2655 12.27
04/28 07:00 0.00 3.17 3.07 2079 12.25
04/28 08:00 0.00 2.88 2.78 1615 12.37
04/28 09:00 0.00 2.65 2.55 1274 12.50
04/28 10:00 0.00 2.47 2.35 1037 12.93
04/28 11:00 0.00 2.32 2.21 853 13.16
04/28 12:00 0.00 2.21 2.09 735 13.03
04/28 13:00 0.00 2.11 2.00 638 13.31
04/28 14:00 0.00 2.24 2.09 766 13.47
04/28 15:00 0.00 3.22 3.08 2163 13.42
04/28 16:00 0.01 4.25 4.12 4059 13.18
04/28 17:00 0.01 4.78 4.63 5305 13.41
04/28 18:00 0.00 5.04 4.95 5994 13.36
04/28 19:00 0.00 5.18 5.09 6386 13.01
04/28 20:00 0.00 5.24 5.16 6560 12.55
04/28 21:00 0.00 5.29 5.16 6706 12.38
04/28 22:00 0.00 5.31 5.23 6765 12.33
04/28 23:00 0.00 5.31 5.22 6765 12.31
Data processed at Wed 29Apr2026 04:47 GMT

NOTICE: If you are parsing this page

Please convert to using our Data API. Starting early 2026 we will be migrating to: https://water.usace.army.mil with modern pages rendered in JavaScript. When this migration completes you will no longer be able to scrape this page! CWMSDataAPI (CDA)

Timeseries IDs (TSIDs)

TSIDs used from left to right in the data table
WHIT.Precip-Inc.Total.1Hour.1Hour.Ccp-Rev
WHIT.Stage.Inst.1Hour.0.Ccp-Rev
WHIT.Stage-Alt.Inst.1Hour.0.Ccp-Rev
WHIT.Flow.Inst.1Hour.0.Ccp-Rev
WHIT.Volt-Battery Load.Inst.1Hour.0.Ccp-Rev

                            

All information presented herein is the property of the government of the United States of America and may be revised or deleted at any time without prior notice. Dissemination of this information without the expressed written consent of the Public Affairs Office, Tulsa District U.S. Army Corps of Engineers is strictly prohibited. These data are gathered electronically and, as presented, have NOT undergone any form of quality control. These data are NOT guaranteed to be valid or correct.